sensor_id;sensor_type;location;lat;lon;timestamp;P1;durP1;ratioP1;P2;durP2;ratioP2
10063;SDS011;5071;52.360;13.134;2022-12-07T00:02:13;9.40;;;4.73;;
10063;SDS011;5071;52.360;13.134;2022-12-07T00:07:15;9.37;;;4.97;;
10063;SDS011;5071;52.360;13.134;2022-12-07T00:12:19;8.83;;;5.33;;
10063;SDS011;5071;52.360;13.134;2022-12-07T00:17:21;7.37;;;4.27;;
10063;SDS011;5071;52.360;13.134;2022-12-07T00:22:23;8.53;;;4.10;;
10063;SDS011;5071;52.360;13.134;2022-12-07T00:27:28;6.83;;;3.80;;
10063;SDS011;5071;52.360;13.134;2022-12-07T00:32:30;5.97;;;3.90;;
10063;SDS011;5071;52.360;13.134;2022-12-07T00:37:32;5.27;;;3.50;;
10063;SDS011;5071;52.360;13.134;2022-12-07T00:42:35;5.80;;;3.77;;
10063;SDS011;5071;52.360;13.134;2022-12-07T00:47:37;5.03;;;3.60;;
10063;SDS011;5071;52.360;13.134;2022-12-07T00:52:39;5.73;;;3.60;;
10063;SDS011;5071;52.360;13.134;2022-12-07T00:57:43;6.03;;;3.83;;
10063;SDS011;5071;52.360;13.134;2022-12-07T01:02:45;5.00;;;3.53;;
10063;SDS011;5071;52.360;13.134;2022-12-07T01:07:47;4.77;;;3.37;;
10063;SDS011;5071;52.360;13.134;2022-12-07T01:12:51;6.43;;;3.63;;
10063;SDS011;5071;52.360;13.134;2022-12-07T01:17:53;5.90;;;4.10;;
10063;SDS011;5071;52.360;13.134;2022-12-07T01:22:55;5.43;;;4.10;;
10063;SDS011;5071;52.360;13.134;2022-12-07T01:27:59;5.60;;;3.53;;
10063;SDS011;5071;52.360;13.134;2022-12-07T01:33:01;5.47;;;3.20;;
10063;SDS011;5071;52.360;13.134;2022-12-07T01:38:03;4.80;;;3.50;;
10063;SDS011;5071;52.360;13.134;2022-12-07T01:43:09;5.00;;;3.17;;
10063;SDS011;5071;52.360;13.134;2022-12-07T01:48:19;6.80;;;4.00;;
10063;SDS011;5071;52.360;13.134;2022-12-07T01:53:24;4.97;;;3.07;;
10063;SDS011;5071;52.360;13.134;2022-12-07T01:58:30;5.70;;;3.57;;
10063;SDS011;5071;52.360;13.134;2022-12-07T02:03:34;5.67;;;3.33;;
10063;SDS011;5071;52.360;13.134;2022-12-07T02:08:39;4.00;;;2.77;;
10063;SDS011;5071;52.360;13.134;2022-12-07T02:13:44;5.07;;;3.20;;
10063;SDS011;5071;52.360;13.134;2022-12-07T02:18:54;5.73;;;3.03;;
10063;SDS011;5071;52.360;13.134;2022-12-07T02:29:42;4.50;;;2.97;;
10063;SDS011;5071;52.360;13.134;2022-12-07T02:34:49;4.23;;;2.67;;
10063;SDS011;5071;52.360;13.134;2022-12-07T02:39:58;6.07;;;3.40;;
10063;SDS011;5071;52.360;13.134;2022-12-07T02:45:07;5.50;;;3.70;;
10063;SDS011;5071;52.360;13.134;2022-12-07T02:50:12;4.90;;;3.33;;
10063;SDS011;5071;52.360;13.134;2022-12-07T02:55:15;5.63;;;3.93;;
10063;SDS011;5071;52.360;13.134;2022-12-07T03:00:23;6.03;;;3.40;;
10063;SDS011;5071;52.360;13.134;2022-12-07T03:05:34;6.47;;;4.07;;
10063;SDS011;5071;52.360;13.134;2022-12-07T03:10:48;7.53;;;4.17;;
10063;SDS011;5071;52.360;13.134;2022-12-07T03:15:58;8.10;;;4.67;;
10063;SDS011;5071;52.360;13.134;2022-12-07T03:21:08;8.00;;;4.07;;
10063;SDS011;5071;52.360;13.134;2022-12-07T03:26:16;10.47;;;4.60;;
10063;SDS011;5071;52.360;13.134;2022-12-07T03:31:23;8.87;;;4.37;;
10063;SDS011;5071;52.360;13.134;2022-12-07T03:36:30;10.33;;;5.03;;
10063;SDS011;5071;52.360;13.134;2022-12-07T03:41:37;10.20;;;5.47;;
10063;SDS011;5071;52.360;13.134;2022-12-07T03:46:48;10.50;;;4.97;;
10063;SDS011;5071;52.360;13.134;2022-12-07T03:52:00;14.27;;;6.90;;
10063;SDS011;5071;52.360;13.134;2022-12-07T03:57:08;15.97;;;6.63;;
10063;SDS011;5071;52.360;13.134;2022-12-07T04:02:13;14.47;;;7.07;;
10063;SDS011;5071;52.360;13.134;2022-12-07T04:07:16;13.97;;;6.90;;
10063;SDS011;5071;52.360;13.134;2022-12-07T04:12:18;14.60;;;6.43;;
10063;SDS011;5071;52.360;13.134;2022-12-07T04:17:21;16.43;;;7.53;;
10063;SDS011;5071;52.360;13.134;2022-12-07T04:22:23;16.20;;;6.53;;
10063;SDS011;5071;52.360;13.134;2022-12-07T04:27:25;24.30;;;9.17;;
10063;SDS011;5071;52.360;13.134;2022-12-07T04:32:29;19.57;;;9.53;;
10063;SDS011;5071;52.360;13.134;2022-12-07T04:37:32;16.30;;;9.30;;
10063;SDS011;5071;52.360;13.134;2022-12-07T04:42:34;20.70;;;8.77;;
10063;SDS011;5071;52.360;13.134;2022-12-07T04:47:37;22.13;;;9.37;;
10063;SDS011;5071;52.360;13.134;2022-12-07T04:52:39;16.40;;;8.60;;
10063;SDS011;5071;52.360;13.134;2022-12-07T04:57:41;20.77;;;9.40;;
10063;SDS011;5071;52.360;13.134;2022-12-07T05:02:46;19.97;;;9.23;;
10063;SDS011;5071;52.360;13.134;2022-12-07T05:07:47;24.43;;;11.53;;
10063;SDS011;5071;52.360;13.134;2022-12-07T05:12:50;19.83;;;9.23;;
10063;SDS011;5071;52.360;13.134;2022-12-07T05:17:53;18.90;;;9.57;;
10063;SDS011;5071;52.360;13.134;2022-12-07T05:22:55;24.17;;;11.40;;
10063;SDS011;5071;52.360;13.134;2022-12-07T05:27:57;23.27;;;10.77;;
10063;SDS011;5071;52.360;13.134;2022-12-07T05:33:01;20.50;;;10.50;;
10063;SDS011;5071;52.360;13.134;2022-12-07T05:38:03;26.23;;;10.57;;
10063;SDS011;5071;52.360;13.134;2022-12-07T05:43:05;25.17;;;10.73;;
10063;SDS011;5071;52.360;13.134;2022-12-07T05:48:08;22.57;;;10.97;;
10063;SDS011;5071;52.360;13.134;2022-12-07T05:53:10;23.50;;;11.53;;
10063;SDS011;5071;52.360;13.134;2022-12-07T05:58:12;26.10;;;11.20;;
10063;SDS011;5071;52.360;13.134;2022-12-07T06:03:15;31.07;;;13.67;;
10063;SDS011;5071;52.360;13.134;2022-12-07T06:08:18;29.73;;;11.43;;
10063;SDS011;5071;52.360;13.134;2022-12-07T06:13:21;28.60;;;12.10;;
10063;SDS011;5071;52.360;13.134;2022-12-07T06:18:25;25.67;;;11.97;;
10063;SDS011;5071;52.360;13.134;2022-12-07T06:23:27;24.77;;;11.93;;
10063;SDS011;5071;52.360;13.134;2022-12-07T06:28:28;26.00;;;11.10;;
10063;SDS011;5071;52.360;13.134;2022-12-07T06:33:32;29.17;;;12.53;;
10063;SDS011;5071;52.360;13.134;2022-12-07T06:38:33;26.50;;;12.63;;
10063;SDS011;5071;52.360;13.134;2022-12-07T06:43:35;24.53;;;10.57;;
10063;SDS011;5071;52.360;13.134;2022-12-07T06:48:39;28.43;;;12.20;;
10063;SDS011;5071;52.360;13.134;2022-12-07T06:53:40;32.10;;;13.50;;
10063;SDS011;5071;52.360;13.134;2022-12-07T06:58:43;28.90;;;11.57;;
10063;SDS011;5071;52.360;13.134;2022-12-07T07:03:46;31.93;;;11.47;;
10063;SDS011;5071;52.360;13.134;2022-12-07T07:08:49;22.90;;;10.97;;
10063;SDS011;5071;52.360;13.134;2022-12-07T07:13:51;27.47;;;11.47;;
10063;SDS011;5071;52.360;13.134;2022-12-07T07:18:54;28.73;;;11.87;;
10063;SDS011;5071;52.360;13.134;2022-12-07T07:23:56;27.13;;;11.70;;
10063;SDS011;5071;52.360;13.134;2022-12-07T07:28:58;26.00;;;11.20;;
10063;SDS011;5071;52.360;13.134;2022-12-07T07:34:02;19.77;;;9.70;;
10063;SDS011;5071;52.360;13.134;2022-12-07T07:39:04;30.93;;;10.73;;
10063;SDS011;5071;52.360;13.134;2022-12-07T07:44:06;19.80;;;10.00;;
10063;SDS011;5071;52.360;13.134;2022-12-07T07:49:10;24.60;;;9.80;;
10063;SDS011;5071;52.360;13.134;2022-12-07T07:54:12;23.17;;;9.93;;
10063;SDS011;5071;52.360;13.134;2022-12-07T07:59:14;16.77;;;8.57;;
10063;SDS011;5071;52.360;13.134;2022-12-07T08:04:18;18.97;;;9.20;;
10063;SDS011;5071;52.360;13.134;2022-12-07T08:09:20;20.23;;;8.30;;
10063;SDS011;5071;52.360;13.134;2022-12-07T08:14:22;17.57;;;8.27;;
10063;SDS011;5071;52.360;13.134;2022-12-07T08:19:26;12.60;;;7.23;;
10063;SDS011;5071;52.360;13.134;2022-12-07T08:24:28;13.40;;;6.43;;
10063;SDS011;5071;52.360;13.134;2022-12-07T08:29:30;11.97;;;5.70;;
10063;SDS011;5071;52.360;13.134;2022-12-07T08:34:34;7.67;;;3.80;;
10063;SDS011;5071;52.360;13.134;2022-12-07T08:39:36;7.63;;;3.47;;
10063;SDS011;5071;52.360;13.134;2022-12-07T08:44:38;4.30;;;2.60;;
10063;SDS011;5071;52.360;13.134;2022-12-07T08:49:43;4.20;;;2.23;;
10063;SDS011;5071;52.360;13.134;2022-12-07T08:54:48;3.93;;;2.07;;
10063;SDS011;5071;52.360;13.134;2022-12-07T08:59:51;2.23;;;1.93;;
10063;SDS011;5071;52.360;13.134;2022-12-07T09:04:55;3.50;;;2.20;;
10063;SDS011;5071;52.360;13.134;2022-12-07T09:09:57;4.80;;;2.67;;
10063;SDS011;5071;52.360;13.134;2022-12-07T09:15:00;3.10;;;1.83;;
10063;SDS011;5071;52.360;13.134;2022-12-07T09:20:05;4.70;;;2.23;;
10063;SDS011;5071;52.360;13.134;2022-12-07T09:25:09;2.37;;;1.80;;
10063;SDS011;5071;52.360;13.134;2022-12-07T09:30:12;2.90;;;1.87;;
10063;SDS011;5071;52.360;13.134;2022-12-07T09:35:17;3.43;;;2.27;;
10063;SDS011;5071;52.360;13.134;2022-12-07T09:40:20;3.63;;;2.83;;
10063;SDS011;5071;52.360;13.134;2022-12-07T09:45:24;3.53;;;1.93;;
10063;SDS011;5071;52.360;13.134;2022-12-07T09:50:33;3.40;;;1.80;;
10063;SDS011;5071;52.360;13.134;2022-12-07T09:55:36;2.80;;;1.80;;
10063;SDS011;5071;52.360;13.134;2022-12-07T10:00:39;2.93;;;1.87;;
10063;SDS011;5071;52.360;13.134;2022-12-07T10:05:44;3.53;;;2.27;;
10063;SDS011;5071;52.360;13.134;2022-12-07T10:10:50;3.40;;;2.10;;
10063;SDS011;5071;52.360;13.134;2022-12-07T10:15:53;4.40;;;2.73;;
10063;SDS011;5071;52.360;13.134;2022-12-07T10:21:02;5.70;;;2.13;;
10063;SDS011;5071;52.360;13.134;2022-12-07T10:26:26;2.57;;;2.00;;
10063;SDS011;5071;52.360;13.134;2022-12-07T10:31:31;3.23;;;2.00;;
10063;SDS011;5071;52.360;13.134;2022-12-07T10:36:36;3.13;;;1.77;;
10063;SDS011;5071;52.360;13.134;2022-12-07T10:41:52;5.10;;;1.70;;
10063;SDS011;5071;52.360;13.134;2022-12-07T10:47:05;4.13;;;1.77;;
10063;SDS011;5071;52.360;13.134;2022-12-07T10:52:24;2.37;;;1.87;;
10063;SDS011;5071;52.360;13.134;2022-12-07T10:57:44;7.87;;;1.90;;
10063;SDS011;5071;52.360;13.134;2022-12-07T11:02:57;4.03;;;1.70;;
10063;SDS011;5071;52.360;13.134;2022-12-07T11:08:17;2.70;;;1.37;;
10063;SDS011;5071;52.360;13.134;2022-12-07T11:13:29;2.73;;;1.53;;
10063;SDS011;5071;52.360;13.134;2022-12-07T11:18:43;2.27;;;1.50;;
10063;SDS011;5071;52.360;13.134;2022-12-07T11:24:01;3.10;;;1.30;;
10063;SDS011;5071;52.360;13.134;2022-12-07T11:29:16;2.63;;;1.90;;
10063;SDS011;5071;52.360;13.134;2022-12-07T11:34:31;4.30;;;1.90;;
10063;SDS011;5071;52.360;13.134;2022-12-07T11:39:44;3.13;;;1.63;;
10063;SDS011;5071;52.360;13.134;2022-12-07T11:44:52;2.43;;;1.90;;
10063;SDS011;5071;52.360;13.134;2022-12-07T11:49:58;2.83;;;1.53;;
10063;SDS011;5071;52.360;13.134;2022-12-07T11:55:14;3.73;;;1.60;;
10063;SDS011;5071;52.360;13.134;2022-12-07T12:00:21;5.10;;;1.60;;
10063;SDS011;5071;52.360;13.134;2022-12-07T12:05:24;3.13;;;1.40;;
10063;SDS011;5071;52.360;13.134;2022-12-07T12:10:30;4.00;;;1.50;;
10063;SDS011;5071;52.360;13.134;2022-12-07T12:15:43;3.43;;;1.80;;
10063;SDS011;5071;52.360;13.134;2022-12-07T12:21:00;4.80;;;1.50;;
10063;SDS011;5071;52.360;13.134;2022-12-07T12:26:07;1.30;;;1.13;;
10063;SDS011;5071;52.360;13.134;2022-12-07T12:31:16;5.40;;;1.43;;
10063;SDS011;5071;52.360;13.134;2022-12-07T12:36:44;5.47;;;1.40;;
10063;SDS011;5071;52.360;13.134;2022-12-07T12:41:59;3.20;;;1.23;;
10063;SDS011;5071;52.360;13.134;2022-12-07T12:47:02;3.07;;;1.60;;
10063;SDS011;5071;52.360;13.134;2022-12-07T13:03:31;2.33;;;1.07;;
10063;SDS011;5071;52.360;13.134;2022-12-07T13:08:34;1.40;;;1.17;;
10063;SDS011;5071;52.360;13.134;2022-12-07T13:13:43;2.43;;;1.17;;
10063;SDS011;5071;52.360;13.134;2022-12-07T13:18:46;2.00;;;1.17;;
10063;SDS011;5071;52.360;13.134;2022-12-07T13:23:52;5.47;;;1.20;;
10063;SDS011;5071;52.360;13.134;2022-12-07T13:29:05;2.50;;;1.30;;
10063;SDS011;5071;52.360;13.134;2022-12-07T13:34:30;3.63;;;1.10;;
10063;SDS011;5071;52.360;13.134;2022-12-07T13:39:34;4.50;;;1.37;;
10063;SDS011;5071;52.360;13.134;2022-12-07T13:44:39;1.50;;;1.23;;
10063;SDS011;5071;52.360;13.134;2022-12-07T13:49:48;3.47;;;1.20;;
10063;SDS011;5071;52.360;13.134;2022-12-07T13:54:55;1.97;;;1.00;;
10063;SDS011;5071;52.360;13.134;2022-12-07T14:00:01;4.07;;;1.40;;
10063;SDS011;5071;52.360;13.134;2022-12-07T14:05:09;1.40;;;1.17;;
10063;SDS011;5071;52.360;13.134;2022-12-07T14:10:24;2.17;;;1.80;;
10063;SDS011;5071;52.360;13.134;2022-12-07T14:15:29;1.83;;;1.37;;
10063;SDS011;5071;52.360;13.134;2022-12-07T14:20:35;2.57;;;1.43;;
10063;SDS011;5071;52.360;13.134;2022-12-07T14:25:45;2.77;;;1.40;;
10063;SDS011;5071;52.360;13.134;2022-12-07T14:30:52;6.57;;;1.90;;
10063;SDS011;5071;52.360;13.134;2022-12-07T14:35:56;1.97;;;1.40;;
10063;SDS011;5071;52.360;13.134;2022-12-07T14:40:57;7.63;;;1.60;;
10063;SDS011;5071;52.360;13.134;2022-12-07T14:46:00;3.57;;;2.27;;
10063;SDS011;5071;52.360;13.134;2022-12-07T14:51:04;6.33;;;2.10;;
10063;SDS011;5071;52.360;13.134;2022-12-07T14:56:27;2.43;;;1.17;;
10063;SDS011;5071;52.360;13.134;2022-12-07T15:01:29;6.50;;;1.97;;
10063;SDS011;5071;52.360;13.134;2022-12-07T15:06:32;3.87;;;1.50;;
10063;SDS011;5071;52.360;13.134;2022-12-07T15:11:35;5.47;;;1.77;;
10063;SDS011;5071;52.360;13.134;2022-12-07T15:16:45;5.90;;;1.90;;
10063;SDS011;5071;52.360;13.134;2022-12-07T15:22:09;5.70;;;1.27;;
10063;SDS011;5071;52.360;13.134;2022-12-07T15:27:11;4.93;;;1.43;;
10063;SDS011;5071;52.360;13.134;2022-12-07T15:32:14;4.60;;;2.10;;
10063;SDS011;5071;52.360;13.134;2022-12-07T15:37:18;6.50;;;2.30;;
10063;SDS011;5071;52.360;13.134;2022-12-07T15:42:20;5.40;;;1.73;;
10063;SDS011;5071;52.360;13.134;2022-12-07T15:47:23;2.60;;;1.87;;
10063;SDS011;5071;52.360;13.134;2022-12-07T15:52:27;2.37;;;1.40;;
10063;SDS011;5071;52.360;13.134;2022-12-07T15:57:30;3.33;;;1.57;;
10063;SDS011;5071;52.360;13.134;2022-12-07T16:02:33;1.87;;;1.33;;
10063;SDS011;5071;52.360;13.134;2022-12-07T16:07:41;5.13;;;2.70;;
10063;SDS011;5071;52.360;13.134;2022-12-07T16:12:44;7.07;;;1.73;;
10063;SDS011;5071;52.360;13.134;2022-12-07T16:17:46;4.63;;;2.37;;
10063;SDS011;5071;52.360;13.134;2022-12-07T16:22:52;11.67;;;4.17;;
10063;SDS011;5071;52.360;13.134;2022-12-07T16:27:54;4.73;;;2.40;;
10063;SDS011;5071;52.360;13.134;2022-12-07T16:32:56;4.63;;;2.60;;
10063;SDS011;5071;52.360;13.134;2022-12-07T16:38:04;4.77;;;2.50;;
10063;SDS011;5071;52.360;13.134;2022-12-07T16:43:06;4.53;;;2.80;;
10063;SDS011;5071;52.360;13.134;2022-12-07T16:48:09;7.97;;;3.33;;
10063;SDS011;5071;52.360;13.134;2022-12-07T16:53:12;15.13;;;2.57;;
10063;SDS011;5071;52.360;13.134;2022-12-07T16:58:15;5.67;;;2.40;;
10063;SDS011;5071;52.360;13.134;2022-12-07T17:03:18;5.90;;;2.07;;
10063;SDS011;5071;52.360;13.134;2022-12-07T17:08:22;2.70;;;1.70;;
10063;SDS011;5071;52.360;13.134;2022-12-07T17:13:24;3.87;;;1.80;;
10063;SDS011;5071;52.360;13.134;2022-12-07T17:18:30;8.30;;;2.07;;
10063;SDS011;5071;52.360;13.134;2022-12-07T17:23:34;2.20;;;1.90;;
10063;SDS011;5071;52.360;13.134;2022-12-07T17:28:38;6.20;;;2.00;;
10063;SDS011;5071;52.360;13.134;2022-12-07T17:33:41;13.83;;;2.77;;
10063;SDS011;5071;52.360;13.134;2022-12-07T17:38:45;2.90;;;1.63;;
10063;SDS011;5071;52.360;13.134;2022-12-07T17:43:48;7.67;;;2.40;;
10063;SDS011;5071;52.360;13.134;2022-12-07T17:48:52;5.83;;;2.07;;
10063;SDS011;5071;52.360;13.134;2022-12-07T17:53:56;6.13;;;2.53;;
10063;SDS011;5071;52.360;13.134;2022-12-07T17:58:58;3.13;;;2.00;;
10063;SDS011;5071;52.360;13.134;2022-12-07T18:04:00;5.07;;;2.97;;
10063;SDS011;5071;52.360;13.134;2022-12-07T18:09:04;4.50;;;2.60;;
10063;SDS011;5071;52.360;13.134;2022-12-07T18:14:06;5.07;;;2.17;;
10063;SDS011;5071;52.360;13.134;2022-12-07T18:19:09;5.73;;;2.13;;
10063;SDS011;5071;52.360;13.134;2022-12-07T18:24:13;4.67;;;1.90;;
10063;SDS011;5071;52.360;13.134;2022-12-07T18:29:16;9.27;;;2.40;;
10063;SDS011;5071;52.360;13.134;2022-12-07T18:34:19;3.33;;;2.13;;
10063;SDS011;5071;52.360;13.134;2022-12-07T18:39:22;6.30;;;2.77;;
10063;SDS011;5071;52.360;13.134;2022-12-07T18:44:30;4.87;;;2.63;;
10063;SDS011;5071;52.360;13.134;2022-12-07T18:49:32;5.87;;;2.60;;
10063;SDS011;5071;52.360;13.134;2022-12-07T18:54:36;5.17;;;2.53;;
10063;SDS011;5071;52.360;13.134;2022-12-07T18:59:38;6.80;;;2.53;;
10063;SDS011;5071;52.360;13.134;2022-12-07T19:04:40;3.00;;;2.27;;
10063;SDS011;5071;52.360;13.134;2022-12-07T19:09:44;4.37;;;2.73;;
10063;SDS011;5071;52.360;13.134;2022-12-07T19:14:47;5.90;;;2.60;;
10063;SDS011;5071;52.360;13.134;2022-12-07T19:19:49;11.53;;;3.80;;
10063;SDS011;5071;52.360;13.134;2022-12-07T19:24:53;6.53;;;2.50;;
10063;SDS011;5071;52.360;13.134;2022-12-07T19:29:55;8.30;;;3.40;;
10063;SDS011;5071;52.360;13.134;2022-12-07T19:34:57;10.83;;;3.80;;
10063;SDS011;5071;52.360;13.134;2022-12-07T19:40:01;5.77;;;2.70;;
10063;SDS011;5071;52.360;13.134;2022-12-07T19:45:03;5.67;;;2.70;;
10063;SDS011;5071;52.360;13.134;2022-12-07T19:50:07;7.60;;;3.00;;
10063;SDS011;5071;52.360;13.134;2022-12-07T19:55:11;6.23;;;3.77;;
10063;SDS011;5071;52.360;13.134;2022-12-07T20:00:14;5.03;;;2.67;;
10063;SDS011;5071;52.360;13.134;2022-12-07T20:05:16;4.27;;;2.47;;
10063;SDS011;5071;52.360;13.134;2022-12-07T20:10:20;9.77;;;3.03;;
10063;SDS011;5071;52.360;13.134;2022-12-07T20:15:27;7.07;;;2.53;;
10063;SDS011;5071;52.360;13.134;2022-12-07T20:20:29;8.20;;;3.70;;
10063;SDS011;5071;52.360;13.134;2022-12-07T20:25:35;11.73;;;4.50;;
10063;SDS011;5071;52.360;13.134;2022-12-07T20:30:44;10.17;;;3.77;;
10063;SDS011;5071;52.360;13.134;2022-12-07T20:35:47;10.60;;;2.90;;
10063;SDS011;5071;52.360;13.134;2022-12-07T20:40:52;7.80;;;2.33;;
10063;SDS011;5071;52.360;13.134;2022-12-07T20:46:01;7.63;;;3.27;;
10063;SDS011;5071;52.360;13.134;2022-12-07T20:51:04;10.57;;;4.37;;
10063;SDS011;5071;52.360;13.134;2022-12-07T20:56:15;7.27;;;3.30;;
10063;SDS011;5071;52.360;13.134;2022-12-07T21:01:18;16.60;;;5.30;;
10063;SDS011;5071;52.360;13.134;2022-12-07T21:06:20;11.27;;;3.70;;
10063;SDS011;5071;52.360;13.134;2022-12-07T21:11:24;4.33;;;2.43;;
10063;SDS011;5071;52.360;13.134;2022-12-07T21:16:27;5.80;;;2.60;;
10063;SDS011;5071;52.360;13.134;2022-12-07T21:21:31;5.53;;;3.50;;
10063;SDS011;5071;52.360;13.134;2022-12-07T21:26:36;10.70;;;2.93;;
10063;SDS011;5071;52.360;13.134;2022-12-07T21:31:38;9.03;;;1.80;;
10063;SDS011;5071;52.360;13.134;2022-12-07T21:36:41;2.73;;;1.57;;
10063;SDS011;5071;52.360;13.134;2022-12-07T21:41:44;6.07;;;1.83;;
10063;SDS011;5071;52.360;13.134;2022-12-07T21:46:46;2.00;;;1.23;;
10063;SDS011;5071;52.360;13.134;2022-12-07T21:51:49;4.30;;;1.50;;
10063;SDS011;5071;52.360;13.134;2022-12-07T21:56:52;6.60;;;1.30;;
10063;SDS011;5071;52.360;13.134;2022-12-07T22:01:54;2.23;;;1.50;;
10063;SDS011;5071;52.360;13.134;2022-12-07T22:06:56;3.13;;;2.00;;
10063;SDS011;5071;52.360;13.134;2022-12-07T22:11:59;5.20;;;1.67;;
10063;SDS011;5071;52.360;13.134;2022-12-07T22:17:02;3.23;;;1.70;;
10063;SDS011;5071;52.360;13.134;2022-12-07T22:22:04;7.13;;;1.70;;
10063;SDS011;5071;52.360;13.134;2022-12-07T22:27:07;1.87;;;1.43;;
10063;SDS011;5071;52.360;13.134;2022-12-07T22:32:09;7.33;;;1.67;;
10063;SDS011;5071;52.360;13.134;2022-12-07T22:37:32;3.50;;;1.50;;
10063;SDS011;5071;52.360;13.134;2022-12-07T22:42:35;2.20;;;1.40;;
10063;SDS011;5071;52.360;13.134;2022-12-07T22:47:37;5.40;;;1.97;;
10063;SDS011;5071;52.360;13.134;2022-12-07T22:52:40;5.63;;;1.70;;
10063;SDS011;5071;52.360;13.134;2022-12-07T22:57:44;4.47;;;2.60;;
10063;SDS011;5071;52.360;13.134;2022-12-07T23:02:46;1.93;;;1.47;;
10063;SDS011;5071;52.360;13.134;2022-12-07T23:07:48;6.93;;;2.03;;
10063;SDS011;5071;52.360;13.134;2022-12-07T23:12:51;5.03;;;1.60;;
10063;SDS011;5071;52.360;13.134;2022-12-07T23:17:54;2.27;;;1.23;;
10063;SDS011;5071;52.360;13.134;2022-12-07T23:22:55;4.53;;;2.00;;
10063;SDS011;5071;52.360;13.134;2022-12-07T23:27:58;2.63;;;1.37;;
10063;SDS011;5071;52.360;13.134;2022-12-07T23:33:01;3.37;;;1.50;;
10063;SDS011;5071;52.360;13.134;2022-12-07T23:38:03;3.50;;;1.63;;
10063;SDS011;5071;52.360;13.134;2022-12-07T23:43:06;1.60;;;1.20;;
10063;SDS011;5071;52.360;13.134;2022-12-07T23:48:08;4.50;;;1.77;;
10063;SDS011;5071;52.360;13.134;2022-12-07T23:53:11;2.13;;;1.70;;
10063;SDS011;5071;52.360;13.134;2022-12-07T23:58:14;5.37;;;1.87;;
